SBNF

Ministro Victor Konder International Airport

Navegantes, Brazil
TAF SBNF 180300Z 1806/1906 25005KT 8000 BKN006 TN21/1806Z TX26/1815Z BECMG 1810/1812 9999 NSW SCT010 BECMG 1812/1814 04008KT FEW020 BECMG 1822/1824 6000 TSRA BKN006 FEW030CB BECMG 1902/1904 16008KT 5000 BR BKN008 RMK PDW
Issued Valid From Valid To
Oct-18 @ 03:00 UTC
(9 hours ago)
Oct-18 @ 06:00 UTC
(6 hours ago)
Oct-19 @ 06:00 UTC
(in 18 hours)
Expired Click to View Oct-18 @ 06:00 to Oct-18 @ 10:00
TAF SBNF 180300Z 1806/1906 25005KT 8000 BKN006 TN21/1806Z TX26/1815Z
Wind Visibility Clouds
250° at 5 knots 7,998 meters
  • Broken at 600' AGL
Expired Click to View Oct-18 @ 10:00 to Oct-18 @ 12:00
BECMG 1810/1812 9999 NSW SCT010
Wind Visibility Clouds Conditions
250° at 5 knots 10,000+ meters
  • Scattered at 1,000' AGL
Becoming Oct-18 @ 12:00 to Oct-18 @ 22:00
BECMG 1812/1814 04008KT FEW020
Wind Visibility Clouds Conditions
40° at 8 knots 10,000+ meters
  • Few at 2,000' AGL
Becoming Oct-18 @ 22:00 to Oct-19 @ 02:00
BECMG 1822/1824 6000 TSRA BKN006 FEW030CB
Wind Visibility Clouds Conditions
40° at 8 knots 6,003 meters
  • Broken at 600' AGL
  • Few at 3,000' AGL
  • Thunderstorm
  • Rain
Becoming Oct-19 @ 02:00 to Oct-19 @ 06:00
BECMG 1902/1904 16008KT 5000 BR BKN008 RMK PDW
Wind Visibility Clouds Conditions
160° at 8 knots 5,005 meters
  • Broken at 800' AGL
  • Mist
TAF SBNF 180300Z 1806/1906 25005KT 8000 BKN006 TN21/1806Z TX26/1815Z BECMG 1810/1812 9999 NSW SCT010 BECMG 1812/1814 04008KT FEW020 BECMG 1822/1824 6000 TSRA BKN006 FEW030CB BECMG 1902/1904 16008KT 5000 BR BKN008 RMK PDW
Issued Oct-18 @ 03:00 UTC
(9 hours ago)
Valid From Oct-18 @ 06:00 UTC
(6 hours ago)
Valid To Oct-19 @ 06:00 UTC
(in 18 hours)
Oct-18 @ 06:00 - Oct-18 @ 10:00
Wind Visibility
250° at 5 knots 7,998 meters
Clouds
  • Broken at 600' AGL
Oct-18 @ 10:00 - Oct-18 @ 12:00
Wind Visibility
250° at 5 knots 10,000+ meters
Clouds
  • Scattered at 1,000' AGL
Conditions
Becoming Oct-18 @ 12:00 - Oct-18 @ 22:00
Wind Visibility
40° at 8 knots 10,000+ meters
Clouds
  • Few at 2,000' AGL
Conditions
Becoming Oct-18 @ 22:00 - Oct-19 @ 02:00
Wind Visibility
40° at 8 knots 6,003 meters
Clouds
  • Broken at 600' AGL
  • Few at 3,000' AGL
Conditions
  • Thunderstorm
  • Rain
Becoming Oct-19 @ 02:00 - Oct-19 @ 06:00
Wind Visibility
160° at 8 knots 5,005 meters
Clouds
  • Broken at 800' AGL
Conditions
  • Mist